Time;durP1;ratioP1;P1;durP2;ratioP2;P2;SDS_P1;SDS_P2;PMS_P1;PMS_P2;Temp;Humidity;BMP_temperature;BMP_pressure;BME280_temperature;BME280_humidity;BME280_pressure;Samples;Min_cycle;Max_cycle;Signal;HPM_P1;HPM_P2
2022/01/26 00:07:02;;;;;;;7.57;2.63;;;;;;;5.29;79.85;101499.03;5028214;28;20524;-72
2022/01/26 00:09:31;;;;;;;7.60;2.40;;;;;;;5.24;79.14;101502.25;5033575;28;20034;-72
2022/01/26 00:11:59;;;;;;;9.27;2.55;;;;;;;5.18;78.51;101510.72;5039165;28;20045;-72
2022/01/26 00:14:27;;;;;;;12.80;3.63;;;;;;;5.15;77.92;101503.59;5047350;28;20044;-72
2022/01/26 00:16:55;;;;;;;8.38;3.72;;;;;;;5.16;77.73;101509.72;5031202;28;20045;-73
2022/01/26 00:19:26;;;;;;;12.73;3.65;;;;;;;5.18;77.59;101508.09;5027244;28;20085;-72
2022/01/26 00:21:55;;;;;;;7.20;3.00;;;;;;;5.18;77.51;101506.38;5060810;28;20563;-74
2022/01/26 00:24:49;;;;;;;11.30;3.10;;;;;;;5.20;77.16;101498.56;5031591;28;20080;-73
2022/01/26 00:31:12;;;;;;;9.85;3.47;;;;;;;5.22;76.53;101492.63;5043292;28;20048;-73
2022/01/26 00:34:17;;;;;;;11.18;6.22;;;;;;;5.28;76.50;101480.63;5038143;28;20094;-74
2022/01/26 00:38:44;;;;;;;16.00;9.10;;;;;;;5.42;76.56;101483.09;5021050;28;20128;-73
2022/01/26 00:41:15;;;;;;;13.52;5.20;;;;;;;5.51;76.71;101496.59;5048295;28;20057;-73
2022/01/26 00:43:50;;;;;;;9.65;3.83;;;;;;;5.54;76.60;101481.06;5034269;28;20045;-74
2022/01/26 00:46:18;;;;;;;22.25;7.50;;;;;;;5.53;76.38;101486.22;5046980;28;20396;-74
2022/01/26 00:48:45;;;;;;;14.55;5.20;;;;;;;5.52;76.41;101489.66;5047425;28;20056;-74
2022/01/26 00:51:16;;;;;;;11.48;4.80;;;;;;;5.51;76.10;101493.13;5038300;28;20146;-74
2022/01/26 00:53:47;;;;;;;10.27;4.18;;;;;;;5.51;75.78;101469.56;5045840;28;20052;-74
2022/01/26 00:56:17;;;;;;;6.60;2.53;;;;;;;5.50;75.23;101478.22;5039206;28;20128;-74
2022/01/26 00:58:46;;;;;;;8.45;3.40;;;;;;;5.53;74.12;101471.41;5050268;28;20083;-74
2022/01/26 01:01:14;;;;;;;4.90;2.58;;;;;;;5.50;73.10;101473.91;5051581;28;20094;-74
2022/01/26 01:03:45;;;;;;;6.25;2.28;;;;;;;5.48;72.79;101483.38;5033277;28;20092;-74
2022/01/26 01:06:19;;;;;;;6.40;2.00;;;;;;;5.48;71.92;101464.16;5031250;28;20041;-74
2022/01/26 01:08:47;;;;;;;7.88;2.00;;;;;;;5.47;71.67;101476.34;5025805;28;20489;-74
2022/01/26 01:11:15;;;;;;;7.55;1.90;;;;;;;5.46;71.73;101461.47;5031533;28;20120;-74
2022/01/26 01:13:47;;;;;;;5.90;2.22;;;;;;;5.45;70.76;101464.91;5049174;28;20044;-74
2022/01/26 01:16:19;;;;;;;7.93;1.70;;;;;;;5.43;70.19;101463.97;5051223;28;20047;-74
2022/01/26 01:18:53;;;;;;;6.85;2.20;;;;;;;5.42;69.84;101472.63;5040405;28;20040;-74
2022/01/26 01:29:34;;;;;;;7.53;1.88;;;;;;;5.59;70.10;101468.16;5040686;28;20041;-74
2022/01/26 01:32:10;;;;;;;6.30;1.80;;;;;;;5.60;70.56;101475.19;5047541;28;20060;-74
2022/01/26 01:34:39;;;;;;;6.85;1.95;;;;;;;5.65;71.22;101475.41;5030669;28;20064;-74
2022/01/26 01:37:09;;;;;;;9.02;2.50;;;;;;;5.66;71.27;101471.97;5035440;28;20049;-74
2022/01/26 01:39:38;;;;;;;6.95;1.77;;;;;;;5.68;71.16;101486.03;5046848;28;20040;-74
2022/01/26 01:42:08;;;;;;;7.65;2.13;;;;;;;5.68;71.19;101480.81;5046802;28;20115;-75
2022/01/26 01:44:38;;;;;;;7.22;1.95;;;;;;;5.68;71.29;101473.84;5050530;28;20136;-74
2022/01/26 01:47:07;;;;;;;7.00;2.30;;;;;;;5.66;71.13;101469.34;5048886;28;20083;-74
2022/01/26 01:49:35;;;;;;;5.32;1.15;;;;;;;5.61;70.50;101453.44;5021586;28;20575;-74
2022/01/26 01:52:06;;;;;;;3.97;1.38;;;;;;;5.59;69.79;101465.56;5030547;28;20084;-74
2022/01/26 01:54:33;;;;;;;5.78;1.98;;;;;;;5.58;69.38;101467.28;5048696;28;20570;-75
2022/01/26 01:57:01;;;;;;;5.97;1.98;;;;;;;5.57;69.28;101473.38;5050565;28;20041;-75
2022/01/26 01:59:31;;;;;;;5.40;1.75;;;;;;;5.59;68.97;101466.44;5043789;28;20049;-74
2022/01/26 02:02:02;;;;;;;6.18;1.70;;;;;;;5.61;68.65;101477.00;5043236;28;20087;-74
2022/01/26 02:04:30;;;;;;;5.18;1.70;;;;;;;5.65;68.52;101467.56;5045085;28;20049;-75
2022/01/26 02:06:57;;;;;;;3.63;1.40;;;;;;;5.69;68.25;101469.50;5049095;28;20045;-74
2022/01/26 02:09:25;;;;;;;3.53;1.80;;;;;;;5.76;68.62;101458.50;5040957;28;20041;-74
2022/01/26 02:11:55;;;;;;;5.82;2.08;;;;;;;5.81;69.29;101464.84;5048684;28;20044;-75
2022/01/26 02:14:28;;;;;;;36.15;15.48;;;;;;;5.86;69.92;101458.97;5044581;28;20401;-74
2022/01/26 02:17:06;;;;;;;11.13;4.53;;;;;;;5.88;70.25;101444.25;5029076;28;20124;-75
2022/01/26 02:52:58;;;;;;;10.57;3.80;;;;;;;6.02;69.05;101442.25;5000985;28;20037;-76
2022/01/26 02:55:41;;;;;;;9.07;3.45;;;;;;;6.08;69.16;101436.41;5027195;28;20091;-75
2022/01/26 02:58:37;;;;;;;8.27;2.92;;;;;;;6.11;69.70;101413.81;5045081;28;20045;-76
2022/01/26 03:01:24;;;;;;;7.45;3.08;;;;;;;6.11;69.32;101426.94;5046412;28;20056;-76
2022/01/26 03:04:00;;;;;;;9.52;3.25;;;;;;;6.14;69.21;101408.72;5023212;28;20045;-75
2022/01/26 03:06:35;;;;;;;5.07;2.45;;;;;;;6.15;68.94;101415.78;5042731;28;20488;-75
2022/01/26 03:09:09;;;;;;;8.32;2.28;;;;;;;6.10;67.64;101433.03;5021313;28;20092;-76
2022/01/26 03:11:40;;;;;;;6.88;2.55;;;;;;;6.11;67.50;101424.31;5037525;28;20061;-75
2022/01/26 03:14:17;;;;;;;8.18;2.47;;;;;;;6.11;67.27;101415.53;5047247;28;20037;-75
2022/01/26 03:16:50;;;;;;;5.50;2.38;;;;;;;6.11;66.65;101426.94;5048118;28;20045;-76
2022/01/26 03:19:22;;;;;;;7.70;2.47;;;;;;;6.10;65.96;101430.41;5033679;28;20041;-77
2022/01/26 03:22:14;;;;;;;6.97;1.95;;;;;;;6.08;65.50;101433.78;5028988;28;20128;-76
2022/01/26 03:30:29;;;;;;;5.13;2.15;;;;;;;6.04;65.32;101439.72;5069035;28;20044;-76
2022/01/26 03:33:11;;;;;;;8.68;2.65;;;;;;;6.09;65.92;101423.38;5027390;28;20124;-76
2022/01/26 03:35:47;;;;;;;4.47;2.20;;;;;;;6.14;67.03;101475.97;5030222;28;20049;-75
2022/01/26 03:38:21;;;;;;;6.20;2.40;;;;;;;6.06;68.60;101475.63;5041999;28;20041;-75
2022/01/26 03:40:59;;;;;;;10.85;4.55;;;;;;;5.94;69.31;101470.75;5035084;28;20037;-75
2022/01/26 03:43:29;;;;;;;11.27;4.55;;;;;;;5.85;69.88;101472.88;5045765;28;20048;-75
2022/01/26 03:45:56;;;;;;;8.80;3.53;;;;;;;5.78;70.98;101483.91;5034419;28;20096;-76
2022/01/26 03:48:24;;;;;;;12.20;4.97;;;;;;;5.82;71.41;101490.22;5035232;28;20037;-76
2022/01/26 03:50:51;;;;;;;9.23;3.83;;;;;;;5.86;71.55;101495.66;5044477;28;20091;-74
2022/01/26 03:53:19;;;;;;;11.60;3.92;;;;;;;5.88;71.97;101475.69;5047100;28;20116;-76
2022/01/26 03:55:46;;;;;;;15.02;3.65;;;;;;;5.86;72.26;101497.38;5029390;28;20488;-75
2022/01/26 03:58:14;;;;;;;7.43;2.95;;;;;;;5.85;72.56;101508.66;5046605;28;20076;-75
2022/01/26 04:00:43;;;;;;;10.13;3.25;;;;;;;5.86;71.84;101507.84;5047313;28;20056;-76
2022/01/26 04:03:11;;;;;;;9.15;4.45;;;;;;;5.84;71.40;101499.03;5038616;28;20054;-75
2022/01/26 04:05:39;;;;;;;11.65;3.47;;;;;;;5.87;71.13;101493.94;5037601;28;20073;-76
2022/01/26 04:08:12;;;;;;;8.27;3.38;;;;;;;5.92;71.09;101490.72;5044985;28;20042;-76
2022/01/26 04:10:50;;;;;;;9.18;2.97;;;;;;;5.98;70.66;101503.19;5047898;28;20045;-76
2022/01/26 04:13:18;;;;;;;8.63;4.32;;;;;;;6.04;70.29;101484.28;5047797;28;20047;-76
2022/01/26 04:15:48;;;;;;;9.55;5.88;;;;;;;6.09;70.46;101495.84;5024316;28;20086;-76
2022/01/26 04:18:20;;;;;;;9.60;4.60;;;;;;;6.09;70.38;101490.59;5043654;28;20045;-76
2022/01/26 04:20:52;;;;;;;10.15;3.58;;;;;;;6.10;69.82;101484.53;5040795;28;20037;-76
2022/01/26 04:23:26;;;;;;;9.07;3.90;;;;;;;6.13;68.62;101477.69;5045097;28;20404;-76
2022/01/26 04:25:54;;;;;;;;;;;;;;;6.15;67.20;101486.53;5020445;28;20053;-77
2022/01/26 04:28:27;;;;;;;13.18;4.35;;;;;;;6.17;67.34;101476.13;5044392;28;19921;-76
2022/01/26 04:30:56;;;;;;;5.03;2.35;;;;;;;6.19;66.63;101475.34;5049463;28;20045;-77
2022/01/26 04:33:24;;;;;;;6.32;2.58;;;;;;;6.23;66.09;101464.19;5037612;28;20037;-76
2022/01/26 04:35:51;;;;;;;9.07;3.90;;;;;;;6.08;67.69;101505.44;5048269;28;20045;-73
2022/01/26 04:38:23;;;;;;;11.32;3.00;;;;;;;5.83;69.50;101482.44;5044860;28;20037;-75
2022/01/26 04:41:03;;;;;;;9.75;4.10;;;;;;;5.81;70.13;101472.69;5040232;28;20041;-75
2022/01/26 04:43:35;;;;;;;9.68;3.55;;;;;;;5.84;70.61;101472.84;5053807;28;20386;-76
2022/01/26 04:46:05;;;;;;;13.60;4.72;;;;;;;5.87;70.93;101473.91;5062771;28;20099;-75
2022/01/26 04:48:33;;;;;;;15.43;7.28;;;;;;;5.73;71.59;101479.28;5051734;28;20041;-75
2022/01/26 04:51:00;;;;;;;21.23;12.20;;;;;;;5.68;72.27;101475.56;5069302;28;20098;-76
2022/01/26 04:53:28;;;;;;;16.27;8.73;;;;;;;5.71;72.69;101467.88;5050106;28;20120;-75
2022/01/26 04:55:57;;;;;;;15.45;8.90;;;;;;;5.73;73.29;101467.09;4998038;28;20051;-75
2022/01/26 04:58:24;;;;;;;27.00;10.73;;;;;;;5.76;73.67;101475.09;5065989;28;20518;-75
2022/01/26 05:00:52;;;;;;;20.10;8.95;;;;;;;5.84;73.82;101472.84;5057857;28;20128;-74
2022/01/26 05:03:21;;;;;;;17.63;9.77;;;;;;;5.88;73.69;101477.41;5040787;28;20044;-75
2022/01/26 05:05:48;;;;;;;12.52;4.07;;;;;;;5.87;73.91;101463.44;5024581;28;20540;-75
2022/01/26 05:08:16;;;;;;;10.13;6.18;;;;;;;5.84;73.97;101455.38;5050427;28;20041;-75
2022/01/26 05:10:44;;;;;;;16.60;7.88;;;;;;;5.85;74.11;101472.00;5037974;28;20370;-75
2022/01/26 05:13:14;;;;;;;9.25;3.55;;;;;;;5.87;74.07;101470.34;5078738;28;20041;-75
2022/01/26 05:15:42;;;;;;;11.65;3.88;;;;;;;5.88;73.75;101475.69;5026069;28;20072;-75
2022/01/26 05:18:11;;;;;;;21.38;8.85;;;;;;;5.86;73.17;101474.69;5045120;28;20053;-75
2022/01/26 05:20:40;;;;;;;10.20;4.47;;;;;;;5.88;72.95;101473.09;5051363;28;20045;-75
2022/01/26 05:23:09;;;;;;;12.73;4.32;;;;;;;5.89;72.56;101495.84;5046815;28;20045;-75
2022/01/26 05:25:36;;;;;;;9.27;3.30;;;;;;;5.86;72.47;101502.59;5039270;28;20058;-75
2022/01/26 05:28:04;;;;;;;13.73;3.72;;;;;;;5.81;72.21;101504.13;5046764;28;20059;-76
2022/01/26 05:30:32;;;;;;;14.50;6.22;;;;;;;5.82;72.19;101501.59;5051658;28;20037;-75
2022/01/26 05:33:00;;;;;;;11.77;6.20;;;;;;;5.84;72.03;101493.81;5050233;28;20168;-76
2022/01/26 05:35:28;;;;;;;10.90;4.50;;;;;;;5.83;71.35;101511.25;5040251;28;20453;-76
2022/01/26 05:37:57;;;;;;;9.43;5.63;;;;;;;5.88;70.55;101516.72;5039898;28;20065;-76
2022/01/26 05:40:24;;;;;;;12.02;5.35;;;;;;;5.90;70.26;101517.69;5013749;28;20038;-76
2022/01/26 05:42:52;;;;;;;8.05;3.60;;;;;;;5.86;71.04;101523.56;5032679;28;20120;-74
2022/01/26 05:45:26;;;;;;;8.77;4.55;;;;;;;5.59;72.66;101554.59;5035950;28;20129;-75
2022/01/26 05:47:54;;;;;;;14.75;9.68;;;;;;;5.40;73.96;101544.06;5023916;28;20049;-75
2022/01/26 05:50:22;;;;;;;10.27;8.27;;;;;;;5.30;74.82;101540.09;5031263;28;20117;-72
2022/01/26 05:52:50;;;;;;;9.52;4.18;;;;;;;5.24;75.62;101531.94;5049079;28;20691;-74
2022/01/26 05:55:20;;;;;;;11.13;6.05;;;;;;;5.29;75.80;101540.91;4993718;28;20046;-74
2022/01/26 05:57:48;;;;;;;18.23;11.25;;;;;;;5.35;75.87;101532.47;5011346;28;20164;-74
2022/01/26 06:00:16;;;;;;;11.98;5.70;;;;;;;5.22;76.09;101537.09;5011702;28;20069;-72
2022/01/26 06:02:44;;;;;;;16.33;5.40;;;;;;;5.13;76.84;101514.81;5027409;28;20049;-72
2022/01/26 06:05:12;;;;;;;16.33;6.05;;;;;;;5.13;77.60;101497.38;5030352;28;20107;-72
2022/01/26 06:07:40;;;;;;;29.63;15.00;;;;;;;5.09;77.99;101518.09;5029853;28;20744;-72
2022/01/26 06:10:08;;;;;;;10.13;4.45;;;;;;;5.07;78.22;101483.09;5011397;28;20088;-72
2022/01/26 06:12:37;;;;;;;9.35;5.00;;;;;;;4.89;78.47;101500.50;5009142;28;20070;-72
2022/01/26 06:15:05;;;;;;;13.27;6.05;;;;;;;4.93;79.15;101505.06;5025078;28;20065;-73
2022/01/26 06:17:33;;;;;;;12.50;4.63;;;;;;;4.88;79.41;101511.78;5030312;28;20083;-73
2022/01/26 06:20:01;;;;;;;15.35;6.13;;;;;;;4.90;79.98;101510.16;5030159;28;20597;-72
2022/01/26 06:22:29;;;;;;;18.17;7.63;;;;;;;5.05;80.39;101518.78;5028915;28;20065;-72
2022/01/26 06:24:58;;;;;;;15.60;6.43;;;;;;;5.21;80.49;101503.00;5020291;28;20140;-72
2022/01/26 06:27:26;;;;;;;19.65;9.30;;;;;;;5.30;80.75;101503.47;5013345;28;20046;-73
2022/01/26 06:29:55;;;;;;;12.82;5.45;;;;;;;5.35;80.47;101483.63;5024371;28;20038;-72
2022/01/26 06:32:22;;;;;;;9.25;3.38;;;;;;;5.32;80.06;101509.63;5010910;28;20048;-72
2022/01/26 06:34:50;;;;;;;11.95;4.65;;;;;;;5.32;80.13;101513.97;5050601;28;20454;-73
2022/01/26 06:37:19;;;;;;;11.88;5.18;;;;;;;5.41;80.18;101507.47;5029219;28;20041;-73
2022/01/26 06:39:46;;;;;;;17.98;9.30;;;;;;;5.45;80.25;101496.31;5020757;28;20053;-72
2022/01/26 06:42:18;;;;;;;13.05;5.55;;;;;;;5.34;80.58;101515.84;5043909;28;20777;-72
2022/01/26 06:44:55;;;;;;;8.75;3.90;;;;;;;5.42;80.72;101516.22;5053231;28;20124;-72
2022/01/26 06:47:47;;;;;;;11.20;4.75;;;;;;;5.51;80.57;101499.22;5028913;28;20044;-72
2022/01/26 06:50:15;;;;;;;16.60;6.15;;;;;;;5.64;80.58;101518.16;5015820;28;20041;-72
2022/01/26 06:52:43;;;;;;;18.05;5.65;;;;;;;5.73;80.55;101526.44;5012080;28;20108;-73
2022/01/26 06:55:11;;;;;;;15.57;5.88;;;;;;;5.79;80.12;101504.03;5017832;28;20042;-72
2022/01/26 06:57:39;;;;;;;13.93;5.03;;;;;;;5.85;79.87;101520.03;4993231;28;20133;-73
2022/01/26 07:00:08;;;;;;;20.08;7.43;;;;;;;5.93;79.67;101520.44;5028805;28;20440;-73
2022/01/26 07:02:37;;;;;;;11.23;5.10;;;;;;;6.02;79.10;101533.09;5028797;28;20045;-73
2022/01/26 07:05:05;;;;;;;20.83;5.93;;;;;;;6.06;78.96;101527.13;5010907;28;20526;-73
2022/01/26 07:07:33;;;;;;;14.35;5.45;;;;;;;6.12;78.69;101520.47;5016163;28;20048;-73
2022/01/26 07:10:01;;;;;;;10.55;4.10;;;;;;;6.18;78.50;101512.88;5060880;28;20122;-73
2022/01/26 07:12:29;;;;;;;14.07;6.32;;;;;;;6.18;77.92;101518.09;5029290;28;20046;-73
2022/01/26 07:23:13;;;;;;;12.77;4.18;;;;;;;6.25;76.59;101525.44;5011764;28;20057;-74
2022/01/26 07:25:40;;;;;;;12.88;4.45;;;;;;;6.30;76.32;101531.75;5039864;28;20508;-74
2022/01/26 07:28:08;;;;;;;10.65;3.83;;;;;;;6.32;76.01;101524.88;5061064;28;20130;-74
2022/01/26 07:30:37;;;;;;;10.90;5.07;;;;;;;6.34;76.56;101541.59;5016516;28;20543;-74
2022/01/26 07:33:07;;;;;;;10.90;4.72;;;;;;;6.30;76.89;101546.63;5016888;28;20041;-73
2022/01/26 07:35:34;;;;;;;14.65;5.60;;;;;;;6.33;76.95;101536.25;5014703;28;20057;-74
2022/01/26 07:38:04;;;;;;;14.02;5.35;;;;;;;6.40;76.70;101533.09;5019744;28;20049;-73
2022/01/26 07:40:32;;;;;;;14.23;6.03;;;;;;;6.50;76.96;101542.28;5023053;28;20041;-74
2022/01/26 07:43:00;;;;;;;13.02;4.68;;;;;;;6.56;76.44;101550.41;5022791;28;20050;-73
2022/01/26 07:45:27;;;;;;;8.02;3.88;;;;;;;6.57;74.90;101544.31;5019175;28;20664;-73
2022/01/26 07:47:56;;;;;;;11.70;4.75;;;;;;;6.69;74.65;101551.03;5021208;28;20037;-73
2022/01/26 07:50:26;;;;;;;9.00;3.15;;;;;;;6.80;74.06;101547.13;5016551;28;20041;-73
2022/01/26 07:52:54;;;;;;;13.35;3.85;;;;;;;6.72;73.68;101548.50;5015719;28;20045;-74
2022/01/26 07:55:23;;;;;;;9.80;3.22;;;;;;;6.69;73.98;101539.63;5020036;28;20054;-75
2022/01/26 07:57:52;;;;;;;9.20;3.53;;;;;;;6.66;73.27;101544.72;5041302;28;20050;-75
2022/01/26 08:00:21;;;;;;;9.10;3.13;;;;;;;6.66;72.31;101552.59;5020897;28;20539;-74
2022/01/26 08:02:51;;;;;;;8.50;4.03;;;;;;;6.60;71.19;101533.97;5004209;28;20616;-75
2022/01/26 08:05:21;;;;;;;7.80;3.25;;;;;;;6.56;71.71;101522.47;5024133;28;20032;-74
2022/01/26 08:07:51;;;;;;;12.40;4.65;;;;;;;5.98;72.83;101543.41;5030342;28;20066;-75
2022/01/26 08:10:19;;;;;;;12.10;4.22;;;;;;;5.92;74.21;101565.81;5022307;28;20095;-74
2022/01/26 08:12:49;;;;;;;9.52;4.82;;;;;;;5.90;74.96;101572.72;5015374;28;20041;-73
2022/01/26 08:15:16;;;;;;;16.60;10.02;;;;;;;5.11;75.24;101595.88;5025884;28;20041;-73
2022/01/26 08:17:44;;;;;;;10.68;4.93;;;;;;;4.58;76.51;101569.56;5025503;28;20070;-73
2022/01/26 08:20:13;;;;;;;17.77;7.07;;;;;;;4.47;78.52;101585.47;5024246;28;20048;-73
2022/01/26 08:22:41;;;;;;;14.18;9.32;;;;;;;4.37;79.68;101574.56;5019061;28;20052;-73
2022/01/26 08:25:11;;;;;;;40.00;19.55;;;;;;;4.40;81.46;101585.16;5027884;28;20072;-70
2022/01/26 08:27:43;;;;;;;134.07;59.42;;;;;;;4.50;82.00;101583.94;5029914;28;20472;-71
2022/01/26 08:30:16;;;;;;;22.08;12.27;;;;;;;4.59;82.66;101581.81;5027417;28;20053;-71
2022/01/26 08:32:43;;;;;;;19.25;9.88;;;;;;;4.67;82.57;101559.56;5027812;28;20045;-70
2022/01/26 08:35:11;;;;;;;23.63;18.67;;;;;;;4.67;82.58;101593.56;5025148;28;20050;-70
2022/01/26 08:37:39;;;;;;;20.13;14.68;;;;;;;4.75;82.89;101593.97;5057221;28;20092;-69
2022/01/26 08:40:08;;;;;;;16.98;12.63;;;;;;;4.85;82.61;101611.03;5028118;28;20053;-69
2022/01/26 08:42:41;;;;;;;27.00;21.63;;;;;;;4.95;82.31;101600.22;5027362;28;20493;-69
2022/01/26 08:45:10;;;;;;;26.50;20.25;;;;;;;5.01;82.42;101592.69;5025884;28;20485;-69
2022/01/26 08:47:37;;;;;;;22.23;11.18;;;;;;;5.15;82.46;101599.53;5024941;28;20050;-69
2022/01/26 08:50:07;;;;;;;15.65;10.10;;;;;;;5.20;81.84;101635.56;5020586;28;20042;-69
2022/01/26 08:52:34;;;;;;;16.20;9.45;;;;;;;5.13;81.52;101666.56;5024605;28;20037;-69
2022/01/26 08:55:02;;;;;;;16.98;12.98;;;;;;;5.16;81.75;101671.97;5029893;28;20041;-69
2022/01/26 08:57:31;;;;;;;22.88;17.55;;;;;;;5.17;81.83;101643.28;5020392;28;20045;-72
2022/01/26 10:15:35;;;;;;;16.48;8.07;;;;;;;5.82;81.39;101610.72;5033151;28;20492;-74
2022/01/26 10:18:07;;;;;;;12.88;5.57;;;;;;;6.05;81.26;101598.72;5080215;28;20044;-74
2022/01/26 10:20:46;;;;;;;11.15;7.43;;;;;;;6.15;81.06;101588.75;5084330;28;20090;-74
2022/01/26 10:23:16;;;;;;;17.60;7.32;;;;;;;6.10;80.91;101587.66;5088852;28;20131;-74
2022/01/26 10:25:46;;;;;;;13.60;7.22;;;;;;;6.12;81.07;101598.19;5083397;28;20560;-73
2022/01/26 10:28:17;;;;;;;22.80;10.63;;;;;;;6.09;80.64;101585.84;5096789;28;20062;-73
2022/01/26 10:30:47;;;;;;;14.38;7.18;;;;;;;6.10;80.40;101590.28;5085319;28;20055;-74
2022/01/26 10:33:17;;;;;;;18.27;11.25;;;;;;;6.21;79.92;101615.25;5084148;28;20048;-77
2022/01/26 10:35:45;;;;;;;9.52;5.70;;;;;;;6.21;79.09;101594.28;5085370;28;20407;-78
2022/01/26 10:38:14;;;;;;;11.40;5.00;;;;;;;6.25;79.14;101608.41;5085288;28;20064;-79
2022/01/26 10:40:42;;;;;;;12.43;6.53;;;;;;;6.28;79.38;101622.59;5087660;28;20521;-86
2022/01/26 10:43:13;;;;;;;10.70;5.13;;;;;;;6.23;78.93;101616.22;5086925;28;20060;-82
2022/01/26 10:46:02;;;;;;;14.27;9.30;;;;;;;6.10;78.36;101598.13;5089729;28;20502;-81
2022/01/26 10:48:40;;;;;;;13.05;7.82;;;;;;;6.10;78.85;101592.91;5060074;28;20055;-80
2022/01/26 10:51:35;;;;;;;13.10;8.30;;;;;;;6.16;79.13;101561.72;5053819;28;20045;-85
2022/01/26 10:54:19;;;;;;;14.32;5.88;;;;;;;6.24;79.00;101575.16;5085623;28;20052;-81
2022/01/26 10:56:47;;;;;;;10.20;3.55;;;;;;;6.29;78.53;101548.34;5077640;28;20125;-82
2022/01/26 10:59:16;;;;;;;6.40;2.35;;;;;;;6.40;77.42;101562.84;5076839;28;20044;-81
2022/01/26 11:01:45;;;;;;;11.40;3.42;;;;;;;6.52;76.56;101574.69;5086237;28;20048;-79
2022/01/26 11:04:13;;;;;;;11.93;4.85;;;;;;;6.66;76.27;101565.72;5086134;28;20075;-86
2022/01/26 11:06:50;;;;;;;21.13;7.90;;;;;;;6.77;76.22;101559.19;5086307;28;20110;-84
2022/01/26 11:09:21;;;;;;;12.13;5.65;;;;;;;6.89;76.32;101561.47;5082968;28;20131;-87
2022/01/26 11:12:00;;;;;;;14.65;5.45;;;;;;;6.94;75.45;101566.09;5100758;28;20538;-79
2022/01/26 11:14:39;;;;;;;10.77;3.88;;;;;;;7.00;74.07;101532.22;5127120;27;20031;-79
2022/01/26 11:17:09;;;;;;;9.55;4.05;;;;;;;7.02;73.18;101541.03;5121361;27;20847;-79
2022/01/26 11:19:41;;;;;;;9.73;3.78;;;;;;;7.00;72.91;101537.47;5127676;27;20454;-80
2022/01/26 11:22:11;;;;;;;7.53;3.33;;;;;;;7.08;73.15;101543.97;5136887;27;20054;-79
2022/01/26 11:24:44;;;;;;;8.20;3.05;;;;;;;7.09;73.03;101540.47;5108007;27;20216;-78
2022/01/26 11:27:13;;;;;;;7.63;3.10;;;;;;;7.12;72.11;101552.84;5113283;27;20119;-79
2022/01/26 11:29:44;;;;;;;7.50;2.58;;;;;;;7.16;71.77;101546.88;5133176;27;20043;-78
2022/01/26 11:32:20;;;;;;;8.13;2.78;;;;;;;7.18;71.67;101545.22;5100579;28;20089;-79
2022/01/26 11:34:52;;;;;;;9.98;3.20;;;;;;;7.09;71.36;101550.97;5088383;28;20040;-79
2022/01/26 11:37:34;;;;;;;11.23;3.15;;;;;;;6.99;71.59;101546.19;5092474;28;20044;-79
2022/01/26 11:45:35;;;;;;;11.75;5.57;;;;;;;6.55;72.31;101522.38;5098323;28;20094;-77
2022/01/26 11:48:09;;;;;;;8.50;3.88;;;;;;;6.33;73.57;101538.88;5087490;27;20452;-78
2022/01/26 11:50:37;;;;;;;;;;;;;;;6.25;74.68;101535.91;5104176;28;20479;-77
2022/01/26 11:53:06;;;;;;;21.35;8.82;;;;;;;6.26;75.55;101528.94;5092508;28;20502;-77
2022/01/26 11:55:41;;;;;;;9.40;4.18;;;;;;;6.28;75.54;101530.81;5111588;28;20051;-77
2022/01/26 11:58:14;;;;;;;12.75;5.47;;;;;;;6.32;75.72;101517.00;5069604;28;20185;-77
2022/01/26 12:00:50;;;;;;;16.52;7.10;;;;;;;6.40;75.84;101520.88;5110131;27;20044;-78
2022/01/26 12:03:42;;;;;;;9.05;4.00;;;;;;;6.51;75.18;101513.47;5103593;28;20043;-78
2022/01/26 12:06:18;;;;;;;10.60;4.30;;;;;;;6.63;73.32;101500.03;5077598;28;20121;-78
2022/01/26 12:08:46;;;;;;;7.15;3.70;;;;;;;6.80;71.75;101507.78;5104715;27;20039;-78
2022/01/26 12:11:16;;;;;;;12.68;3.13;;;;;;;6.95;70.99;101519.75;5095517;28;20410;-78
2022/01/26 12:13:49;;;;;;;10.57;3.65;;;;;;;7.07;70.99;101521.16;5090874;27;20027;-78
2022/01/26 12:16:21;;;;;;;10.35;4.68;;;;;;;7.17;71.52;101532.91;5095514;27;20035;-78
2022/01/26 12:19:00;;;;;;;11.13;4.40;;;;;;;7.25;70.06;101533.25;5097303;27;20036;-78
2022/01/26 12:33:00;;;;;;;9.02;2.75;;;;;;;7.58;68.11;101508.34;5099876;27;20396;-78
2022/01/26 12:38:21;;;;;;;8.95;3.30;;;;;;;7.85;68.34;101519.94;5097448;28;20054;-78
2022/01/26 12:43:39;;;;;;;7.57;2.85;;;;;;;7.89;66.79;101524.47;5104380;27;20036;-78
2022/01/26 12:46:09;;;;;;;8.75;2.70;;;;;;;7.81;65.74;101522.41;5089731;28;20040;-78
2022/01/26 12:48:39;;;;;;;12.32;2.45;;;;;;;7.68;65.40;101525.38;5087383;28;20052;-77
2022/01/26 12:51:10;;;;;;;5.68;2.10;;;;;;;7.54;65.38;101519.56;5092877;28;20131;-77
2022/01/26 12:53:40;;;;;;;6.13;2.95;;;;;;;7.47;65.88;101528.94;5083933;28;20038;-78
2022/01/26 12:56:09;;;;;;;11.18;3.03;;;;;;;7.42;65.44;101535.72;5087015;28;20130;-78
2022/01/26 12:58:39;;;;;;;8.02;3.13;;;;;;;7.37;65.13;101533.75;5098996;28;20042;-78
2022/01/26 13:01:08;;;;;;;8.18;2.78;;;;;;;7.32;64.68;101545.78;5103812;27;20096;-78
2022/01/26 13:03:38;;;;;;;6.68;2.95;;;;;;;7.30;65.24;101555.34;5089707;27;20052;-79
2022/01/26 13:06:09;;;;;;;8.82;3.65;;;;;;;7.30;65.51;101552.69;5105872;28;20127;-78
2022/01/26 13:08:46;;;;;;;9.55;4.57;;;;;;;7.31;65.20;101547.53;5106741;28;20127;-78
2022/01/26 13:11:14;;;;;;;14.05;5.00;;;;;;;7.30;66.17;101544.81;5104795;27;20383;-79
2022/01/26 13:13:42;;;;;;;17.17;7.32;;;;;;;7.30;66.29;101555.34;5098176;27;20050;-77
2022/01/26 13:16:24;;;;;;;11.90;5.20;;;;;;;7.38;66.04;101540.78;5108136;27;20043;-78
2022/01/26 13:24:50;;;;;;;8.95;3.30;;;;;;;7.47;64.69;101546.44;5111682;27;20498;-78
2022/01/26 13:27:28;;;;;;;9.32;2.72;;;;;;;7.41;63.83;101568.09;5126589;27;20035;-78
2022/01/26 13:30:07;;;;;;;7.53;2.83;;;;;;;7.39;63.45;101563.59;5123816;27;20027;-79
2022/01/26 13:38:34;;;;;;;6.43;3.00;;;;;;;7.29;62.12;101578.06;5083814;28;20196;-78
2022/01/26 13:41:16;;;;;;;8.23;2.85;;;;;;;7.24;62.07;101568.22;5108938;27;20051;-78
2022/01/26 13:47:04;;;;;;;6.60;3.13;;;;;;;7.28;63.54;101586.81;5090032;27;20051;-78
2022/01/26 13:49:46;;;;;;;9.45;3.20;;;;;;;7.30;63.72;101589.47;5097930;28;20558;-78
2022/01/26 13:52:24;;;;;;;11.38;4.00;;;;;;;7.28;63.66;101575.41;5115446;27;20047;-78
2022/01/26 14:00:23;;;;;;;12.13;4.35;;;;;;;7.31;64.13;101588.66;5093279;28;20039;-79
2022/01/26 14:02:57;;;;;;;15.18;7.78;;;;;;;7.37;64.26;101599.41;5109641;27;20051;-77
2022/01/26 14:05:25;;;;;;;8.27;3.97;;;;;;;7.38;63.67;101593.31;5099905;28;20067;-77
2022/01/26 14:07:56;;;;;;;12.07;5.57;;;;;;;7.31;60.80;101593.91;5092257;28;20047;-78
2022/01/26 14:10:26;;;;;;;12.90;7.35;;;;;;;7.30;61.07;101597.34;5099520;28;20071;-78
2022/01/26 14:12:54;;;;;;;17.50;8.35;;;;;;;7.30;61.48;101600.88;5098992;28;20043;-78
2022/01/26 14:15:26;;;;;;;16.63;6.97;;;;;;;7.33;61.38;101598.38;5089194;28;20047;-78
2022/01/26 14:20:50;;;;;;;19.55;9.70;;;;;;;7.26;60.68;101604.22;5102424;28;20042;-78
2022/01/26 14:23:41;;;;;;;27.90;12.90;;;;;;;7.23;60.88;101614.56;5098674;28;20043;-78
2022/01/26 14:26:12;;;;;;;19.67;7.32;;;;;;;7.24;60.46;101626.88;5089463;28;20042;-76
2022/01/26 14:28:41;;;;;;;19.73;7.55;;;;;;;7.20;61.16;101625.88;5088612;28;20070;-78
2022/01/26 14:31:24;;;;;;;8.90;3.75;;;;;;;7.20;60.78;101615.34;5086509;28;20064;-78
2022/01/26 14:34:20;;;;;;;26.17;10.02;;;;;;;7.17;60.88;101616.94;5093793;28;20040;-78
2022/01/26 14:39:27;;;;;;;60.47;29.90;;;;;;;7.20;62.03;101630.22;5105968;28;20056;-78
2022/01/26 14:51:07;;;;;;;24.70;13.95;;;;;;;7.13;60.93;101633.41;5091832;28;20044;-78
2022/01/26 15:35:21;;;;;;;12.85;3.63;;;;;;;7.10;61.77;101656.88;5065449;27;20043;-77
2022/01/26 15:40:47;;;;;;;8.38;3.63;;;;;;;7.09;61.02;101657.72;5083806;28;21534;-76
2022/01/26 15:43:41;;;;;;;10.30;4.63;;;;;;;7.10;61.26;101668.28;5080617;28;20093;-77
2022/01/26 15:57:55;;;;;;;7.72;3.15;;;;;;;7.06;60.07;101671.63;5077635;27;20515;-77
2022/01/26 16:06:03;;;;;;;11.30;3.40;;;;;;;7.07;58.64;101707.53;5112565;27;20067;-75
2022/01/26 16:12:41;;;;;;;8.20;3.95;;;;;;;7.08;58.54;101692.69;5086557;28;20054;-77
2022/01/26 16:17:24;;;;;;;11.30;4.65;;;;;;;7.12;58.62;101707.75;5079329;28;20048;-77